メインページ
METAR-TAF:

METAR-TAF

空港 :

Prince George, ブリティッシュコロンビア州, カナダ

緯度: 53-53N, 経度: 122-41W, 海抜: 691m

現時点の気象観測

当レポートは41分前の17:00(UTC)に作成
の風 4kt、南東から西の間で変化する
気温 22°C
湿度 41%
気圧 1019 hPa
視程: 14.5km
晴天

METAR: CYXS 161700Z AUTO 17004KT 130V270 9SM CLR 22/08 A3010 RMK SLP195 DENSITY ALT 3300FT

時間: 10:41 (17:41 UTC)

予報

当レポートは5時間3分前の12:38(UTC)に作成
予報は16日の 13時(UTC)から 17日の 01時(UTC)まで有効
変向風 3kt
視程: 10km
高度14000ftの雲はほとんどない
高度24000ftの雲は散在している
16日の 15時(UTC)から 16日の 17時(UTC)まで徐々に
の風 12kt

TAF: CYXS 161238Z 1613/1701 VRB03KT P6SM FEW140 SCT240 BECMG 1615/1617 19012KT RMK FCST BASED ON AUTO OBS. NXT FCST BY 161900Z

4,000以上の空港の気象観測と天気予報(METAR報とTAF報)

利用可能な観測所は地図上に黄色い丸と赤い丸で示す。

丸の上にカーソルを重ねると観測所名を参照できる。

次にクリックすると気象観測と天気予報を参照できる。

マップの切り替え:黒色「×」印の緑ボタンをクリックして拡大、「-」印の緑ボタンをクリックして縮小、緑色の三角印をクリックして隣りの地図に切り替え


METAR-TAF: